Time;durP1;ratioP1;P1;durP2;ratioP2;P2;SDS_P1;SDS_P2;PMS_P1;PMS_P2;Temp;Humidity;BMP_temperature;BMP_pressure;BME280_temperature;BME280_humidity;BME280_pressure;Samples;Min_cycle;Max_cycle;Signal;HPM_P1;HPM_P2
2022/11/03 00:00:36;;;;;;;13.60;10.20;;;;;;;6.17;100.00;96817.81;5012043;28;102984;-64
2022/11/03 00:03:38;;;;;;;11.43;9.57;;;;;;;6.18;100.00;96808.84;5014809;28;101876;-64
2022/11/03 00:06:05;;;;;;;19.33;8.90;;;;;;;6.14;100.00;96805.00;5010676;28;103877;-64
2022/11/03 00:08:33;;;;;;;20.77;9.20;;;;;;;6.06;100.00;96808.72;5021075;28;102135;-64
2022/11/03 00:11:42;;;;;;;9.20;8.20;;;;;;;5.92;100.00;96807.19;5030933;28;105171;-64
2022/11/03 00:14:10;;;;;;;8.70;7.80;;;;;;;5.74;100.00;96806.22;5015845;28;105946;-64
2022/11/03 00:16:39;;;;;;;11.63;8.53;;;;;;;5.81;100.00;96801.75;5012285;28;101688;-64
2022/11/03 00:19:07;;;;;;;8.87;7.97;;;;;;;5.89;100.00;96812.06;5012113;28;102702;-64
2022/11/03 00:21:51;;;;;;;9.53;8.60;;;;;;;5.93;100.00;96802.69;5010065;28;105765;-64
2022/11/03 00:24:22;;;;;;;8.87;8.00;;;;;;;5.95;100.00;96790.91;5029677;28;101824;-64
2022/11/03 00:26:50;;;;;;;9.37;8.37;;;;;;;5.90;100.00;96789.94;5030071;28;105666;-64
2022/11/03 00:29:17;;;;;;;11.63;9.60;;;;;;;5.97;100.00;96791.53;5030224;28;102226;-64
2022/11/03 00:32:04;;;;;;;11.50;10.30;;;;;;;5.97;100.00;96793.34;5030703;28;104852;-64
2022/11/03 00:34:31;;;;;;;11.00;9.90;;;;;;;5.96;100.00;96800.47;5029132;28;105694;-64
2022/11/03 00:36:58;;;;;;;9.60;8.20;;;;;;;5.94;100.00;96799.84;5031221;27;103545;-64
2022/11/03 00:39:25;;;;;;;9.80;8.63;;;;;;;5.97;100.00;96788.06;5031774;27;102654;-64
2022/11/03 00:42:02;;;;;;;11.23;9.17;;;;;;;6.05;100.00;96796.53;5030908;27;102601;-64
2022/11/03 00:44:28;;;;;;;10.93;9.50;;;;;;;5.93;100.00;96792.13;5030570;28;101776;-64
2022/11/03 00:46:56;;;;;;;13.60;9.23;;;;;;;5.85;100.00;96792.41;5034254;27;102332;-64
2022/11/03 00:49:25;;;;;;;12.33;8.97;;;;;;;5.83;100.00;96789.16;5031114;27;101711;-64
2022/11/03 00:56:24;;;;;;;9.33;8.33;;;;;;;5.95;100.00;96772.44;5010812;28;106105;-64
2022/11/03 00:58:52;;;;;;;52.33;10.83;;;;;;;5.93;100.00;96774.47;5031560;28;101871;-64
2022/11/03 01:01:20;;;;;;;9.20;8.30;;;;;;;5.82;100.00;96771.69;5029870;27;102790;-64
2022/11/03 01:06:51;;;;;;;9.60;8.60;;;;;;;5.94;100.00;96765.53;5029008;28;101892;-64
2022/11/03 01:09:18;;;;;;;10.20;9.10;;;;;;;6.05;100.00;96756.94;5018597;28;103688;-64
2022/11/03 01:11:56;;;;;;;9.83;8.73;;;;;;;6.03;100.00;96753.72;5012965;28;103905;-64
2022/11/03 01:14:23;;;;;;;11.67;8.83;;;;;;;6.18;100.00;96758.69;5011018;28;102280;-64
2022/11/03 01:16:50;;;;;;;9.97;8.73;;;;;;;6.16;100.00;96752.81;5009522;28;103701;-64
2022/11/03 01:19:17;;;;;;;9.37;8.43;;;;;;;6.16;100.00;96750.97;5011260;28;102277;-64
2022/11/03 01:22:05;;;;;;;9.50;8.50;;;;;;;6.09;100.00;96747.56;5011256;28;102290;-64
2022/11/03 01:24:45;;;;;;;9.00;8.10;;;;;;;5.86;100.00;96746.50;5010257;28;105178;-64
2022/11/03 01:27:14;;;;;;;9.27;8.13;;;;;;;5.82;100.00;96740.84;5011238;28;101656;-64
2022/11/03 01:29:41;;;;;;;8.70;7.80;;;;;;;5.68;100.00;96739.25;5021512;28;102420;-64
2022/11/03 01:32:22;;;;;;;9.87;8.87;;;;;;;5.86;100.00;96735.94;5010562;28;105509;-64
2022/11/03 01:34:49;;;;;;;8.93;7.73;;;;;;;5.82;100.00;96732.09;5014495;28;101647;-64
2022/11/03 01:37:17;;;;;;;8.40;7.57;;;;;;;5.85;100.00;96729.06;5025504;28;102465;-64
2022/11/03 01:39:44;;;;;;;8.97;7.50;;;;;;;5.87;100.00;96717.28;5030824;27;101678;-64
2022/11/03 01:42:26;;;;;;;8.83;7.93;;;;;;;5.78;100.00;96715.88;5030150;27;103484;-64
2022/11/03 01:44:52;;;;;;;8.40;7.60;;;;;;;5.72;100.00;96722.00;5030416;28;104496;-64
2022/11/03 01:47:24;;;;;;;8.63;7.73;;;;;;;5.76;100.00;96717.09;5030602;27;101890;-64
2022/11/03 01:49:54;;;;;;;9.70;8.20;;;;;;;5.76;100.00;96710.00;5029735;27;102595;-64
2022/11/03 01:52:35;;;;;;;9.53;8.53;;;;;;;5.68;100.00;96710.22;5029914;27;103468;-64
2022/11/03 01:55:28;;;;;;;8.10;7.30;;;;;;;5.77;100.00;96700.22;5029427;28;101988;-64
2022/11/03 01:58:02;;;;;;;8.43;7.63;;;;;;;5.74;100.00;96695.41;5013660;28;102946;-64
2022/11/03 02:00:29;;;;;;;8.17;7.37;;;;;;;5.70;100.00;96692.38;5010946;28;101651;-64
2022/11/03 02:03:23;;;;;;;7.60;6.87;;;;;;;5.71;100.00;96690.53;5028845;28;103728;-64
2022/11/03 02:05:51;;;;;;;7.23;6.53;;;;;;;5.52;100.00;96688.84;5028198;28;105824;-64
2022/11/03 02:08:25;;;;;;;6.90;6.30;;;;;;;5.53;100.00;96685.16;5030474;27;101840;-64
2022/11/03 02:12:05;;;;;;;6.40;5.90;;;;;;;5.59;100.00;96685.13;5030163;27;102986;-64
2022/11/03 02:13:50;;;;;;;6.87;6.17;;;;;;;5.49;100.00;96683.97;5029127;28;102789;-64
2022/11/03 02:16:19;;;;;;;6.50;5.90;;;;;;;5.49;100.00;96676.88;5030387;27;103571;-64
2022/11/03 02:18:47;;;;;;;6.73;6.13;;;;;;;5.53;100.00;96683.34;5029994;27;102356;-64
2022/11/03 02:21:44;;;;;;;6.50;5.90;;;;;;;5.55;100.00;96672.56;5027529;28;102547;-64
2022/11/03 02:24:50;;;;;;;6.77;6.17;;;;;;;5.54;100.00;96668.31;5018021;28;103513;-64
2022/11/03 02:27:18;;;;;;;7.80;6.87;;;;;;;5.48;100.00;96670.00;5009831;28;102438;-64
2022/11/03 02:29:46;;;;;;;7.07;6.37;;;;;;;5.43;100.00;96667.19;5010291;28;102149;-64
2022/11/03 02:35:45;;;;;;;8.10;7.30;;;;;;;5.35;100.00;96658.72;5011385;27;103052;-64
2022/11/03 02:38:16;;;;;;;8.10;7.40;;;;;;;5.33;100.00;96655.44;5013942;28;101982;-64
2022/11/03 02:40:48;;;;;;;8.20;7.13;;;;;;;5.19;100.00;96659.19;5012302;28;103603;-64
2022/11/03 02:43:18;;;;;;;7.33;6.63;;;;;;;5.14;100.00;96662.44;5016671;28;103104;-64
2022/11/03 02:45:48;;;;;;;6.83;6.20;;;;;;;5.21;100.00;96657.13;5032559;28;103621;-64
2022/11/03 02:48:17;;;;;;;8.30;6.97;;;;;;;5.10;100.00;96663.91;5033003;27;102682;-64
2022/11/03 02:50:45;;;;;;;9.87;7.30;;;;;;;4.96;100.00;96659.69;5033086;28;101934;-64
2022/11/03 02:54:07;;;;;;;7.63;6.93;;;;;;;5.09;100.00;96672.00;5033683;27;102336;-64
2022/11/03 02:56:40;;;;;;;8.37;7.10;;;;;;;5.08;100.00;96665.13;5033089;28;103504;-64
2022/11/03 02:59:12;;;;;;;8.37;7.57;;;;;;;5.11;100.00;96651.50;5026887;27;102816;-64
2022/11/03 03:01:46;;;;;;;7.33;6.63;;;;;;;5.08;100.00;96652.72;5013450;28;102821;-64
2022/11/03 03:04:17;;;;;;;9.07;7.03;;;;;;;5.05;100.00;96652.34;5019832;28;104148;-64
2022/11/03 03:06:49;;;;;;;62.53;9.70;;;;;;;5.00;100.00;96660.88;5035677;28;101837;-64
2022/11/03 03:09:21;;;;;;;8.23;7.43;;;;;;;5.14;100.00;96656.38;5029728;28;103652;-64
2022/11/03 03:11:58;;;;;;;9.37;8.00;;;;;;;5.26;100.00;96658.13;5033396;27;101695;-64
2022/11/03 03:14:30;;;;;;;8.93;8.13;;;;;;;5.30;100.00;96661.16;5022331;28;105610;-64
2022/11/03 03:17:01;;;;;;;9.37;8.47;;;;;;;5.32;100.00;96656.47;5012815;28;102694;-64
2022/11/03 03:19:38;;;;;;;11.17;8.63;;;;;;;5.26;100.00;96658.13;5029363;28;101765;-64
2022/11/03 03:22:49;;;;;;;10.10;8.83;;;;;;;5.34;100.00;96652.59;5032832;27;102800;-64
2022/11/03 03:26:02;;;;;;;9.00;8.10;;;;;;;5.30;100.00;96659.31;5016521;28;102623;-64
2022/11/03 03:28:33;;;;;;;16.00;8.40;;;;;;;5.23;100.00;96644.56;5024666;28;101867;-64
2022/11/03 03:31:11;;;;;;;8.83;7.93;;;;;;;5.17;100.00;96640.94;5036142;27;102332;-64
2022/11/03 03:33:40;;;;;;;8.20;7.40;;;;;;;5.28;100.00;96631.53;5032508;27;101713;-64
2022/11/03 03:36:13;;;;;;;12.07;8.33;;;;;;;5.16;100.00;96635.88;5032975;27;102839;-64
2022/11/03 03:38:50;;;;;;;13.37;8.53;;;;;;;5.21;100.00;96636.06;5017779;27;102476;-64
2022/11/03 03:41:31;;;;;;;10.03;8.60;;;;;;;5.32;100.00;96630.09;5012942;28;102007;-64
2022/11/03 03:44:04;;;;;;;9.03;7.77;;;;;;;5.31;100.00;96636.41;5013974;28;102931;-64
2022/11/03 03:46:36;;;;;;;7.93;7.13;;;;;;;5.22;100.00;96625.31;5011420;28;101673;-64
2022/11/03 03:49:04;;;;;;;7.27;6.53;;;;;;;5.32;100.00;96617.75;5030162;28;102138;-64
2022/11/03 03:51:33;;;;;;;9.43;7.17;;;;;;;5.34;100.00;96617.53;5032768;27;102854;-64
2022/11/03 03:54:00;;;;;;;9.80;8.13;;;;;;;5.30;100.00;96614.50;5031018;27;102826;-64
2022/11/03 03:57:09;;;;;;;8.57;7.77;;;;;;;5.17;100.00;96611.94;5012491;28;102604;-64
2022/11/03 03:59:36;;;;;;;8.43;7.63;;;;;;;5.15;100.00;96603.44;5012108;28;103156;-64
2022/11/03 04:02:08;;;;;;;24.57;9.43;;;;;;;5.18;100.00;96604.84;5011205;28;101863;-64
2022/11/03 04:04:35;;;;;;;15.13;8.37;;;;;;;5.05;100.00;96602.28;5022121;28;102869;-64
2022/11/03 04:09:46;;;;;;;8.37;7.53;;;;;;;5.02;100.00;96607.97;5032216;27;101670;-64
2022/11/03 04:23:39;;;;;;;13.20;8.90;;;;;;;5.12;100.00;96597.78;4952182;28;102073;-64
2022/11/03 04:26:10;;;;;;;9.50;8.43;;;;;;;5.07;100.00;96603.69;5001701;28;102821;-64
2022/11/03 04:28:37;;;;;;;16.07;10.03;;;;;;;5.17;100.00;96606.66;5017939;28;102497;-64
2022/11/03 04:34:31;;;;;;;9.80;8.80;;;;;;;5.33;100.00;96586.91;5010799;28;103995;-64
2022/11/03 04:36:59;;;;;;;14.23;9.17;;;;;;;5.51;100.00;96584.34;5011258;28;102561;-64
2022/11/03 04:39:26;;;;;;;11.13;9.20;;;;;;;5.57;100.00;96570.31;5027193;28;101858;-64
2022/11/03 04:45:23;;;;;;;13.97;9.53;;;;;;;5.74;100.00;96566.91;5031761;27;101740;-64
2022/11/03 04:47:53;;;;;;;28.00;9.03;;;;;;;5.70;100.00;96564.91;5030316;28;103512;-64
2022/11/03 04:50:23;;;;;;;31.93;9.67;;;;;;;5.50;100.00;96564.25;5029393;28;105468;-64
2022/11/03 04:52:55;;;;;;;12.53;8.63;;;;;;;5.55;100.00;96553.88;5030574;27;101901;-64
2022/11/03 04:55:22;;;;;;;9.10;8.20;;;;;;;5.52;100.00;96549.03;5029842;28;105180;-64
2022/11/03 04:57:54;;;;;;;19.57;8.47;;;;;;;5.53;100.00;96550.66;5019058;28;105757;-64
2022/11/03 05:00:21;;;;;;;10.70;9.47;;;;;;;5.53;100.00;96543.56;5010351;28;101803;-64
2022/11/03 05:03:32;;;;;;;11.77;10.53;;;;;;;5.71;100.00;96542.78;5024003;28;102398;-64
2022/11/03 05:06:09;;;;;;;10.13;9.13;;;;;;;5.84;100.00;96543.50;5011057;28;101999;-64
2022/11/03 05:08:36;;;;;;;9.50;8.60;;;;;;;5.81;100.00;96536.03;5011783;28;102873;-64
2022/11/03 05:11:15;;;;;;;41.43;8.67;;;;;;;5.49;100.00;96534.47;5010781;28;101707;-64
2022/11/03 05:13:41;;;;;;;78.73;11.10;;;;;;;5.52;100.00;96530.59;5027588;28;102112;-64
2022/11/03 05:16:09;;;;;;;41.10;10.83;;;;;;;5.58;100.00;96532.34;5028585;27;102376;-64
2022/11/03 05:18:38;;;;;;;14.17;8.93;;;;;;;5.63;100.00;96532.53;5027875;27;102479;-64
2022/11/03 05:24:31;;;;;;;13.00;8.13;;;;;;;5.59;100.00;96531.31;5010446;27;102782;-64
2022/11/03 05:26:58;;;;;;;93.40;11.63;;;;;;;5.52;100.00;96517.41;5014004;28;102770;-64
2022/11/03 05:29:35;;;;;;;55.93;10.97;;;;;;;5.28;100.00;96526.09;5009845;28;102269;-64
2022/11/03 05:32:25;;;;;;;12.77;9.83;;;;;;;5.38;100.00;96518.50;5016016;28;102590;-64
2022/11/03 05:34:54;;;;;;;10.80;9.70;;;;;;;5.48;100.00;96513.56;5029200;28;101971;-64
2022/11/03 05:37:27;;;;;;;15.73;11.57;;;;;;;5.62;100.00;96509.81;5031069;27;102476;-64
2022/11/03 05:39:58;;;;;;;12.20;10.33;;;;;;;5.60;100.00;96512.66;5029307;28;102803;-64
2022/11/03 05:46:14;;;;;;;13.27;10.33;;;;;;;5.81;100.00;96500.91;5007554;28;101910;-64
2022/11/03 05:48:43;;;;;;;12.40;10.53;;;;;;;5.83;100.00;96497.03;5008123;28;103086;-64
2022/11/03 05:51:47;;;;;;;13.63;11.33;;;;;;;5.95;100.00;96502.41;5011993;28;102061;-64
2022/11/03 05:54:23;;;;;;;13.33;11.17;;;;;;;6.05;100.00;96489.53;5009406;28;102645;-64
2022/11/03 05:56:51;;;;;;;12.40;11.10;;;;;;;6.08;100.00;96491.72;5009798;28;101804;-64
2022/11/03 05:59:22;;;;;;;13.80;11.53;;;;;;;6.04;100.00;96490.53;5009265;28;102340;-64
2022/11/03 06:02:27;;;;;;;16.60;11.83;;;;;;;6.11;100.00;96492.06;5009510;28;102601;-64
2022/11/03 06:04:54;;;;;;;15.80;11.27;;;;;;;6.17;100.00;96490.41;5009821;28;101861;-64
2022/11/03 06:07:25;;;;;;;17.77;12.57;;;;;;;6.24;100.00;96486.66;5009555;28;102496;-64
2022/11/03 06:09:52;;;;;;;16.87;13.13;;;;;;;6.29;100.00;96480.72;5008031;28;102587;-64
2022/11/03 06:12:30;;;;;;;17.57;12.40;;;;;;;6.32;100.00;96482.91;5009328;28;101797;-64
2022/11/03 06:14:57;;;;;;;16.93;12.93;;;;;;;6.33;100.00;96473.97;5010702;28;104205;-64
2022/11/03 06:17:26;;;;;;;16.90;13.63;;;;;;;6.36;100.00;96469.03;5009524;28;102049;-64
2022/11/03 06:19:56;;;;;;;17.93;13.10;;;;;;;6.40;100.00;96470.22;5012759;28;102325;-64
2022/11/03 06:22:50;;;;;;;17.50;12.93;;;;;;;6.57;100.00;96465.94;5028156;27;102724;-64
2022/11/03 06:25:26;;;;;;;18.57;14.23;;;;;;;6.53;100.00;96464.75;5020321;28;101832;-64
2022/11/03 06:27:57;;;;;;;19.57;14.43;;;;;;;6.59;100.00;96470.97;5008004;28;103565;-64
2022/11/03 06:30:26;;;;;;;19.83;14.77;;;;;;;6.61;100.00;96472.34;5008694;28;105261;-64
2022/11/03 06:33:24;;;;;;;29.30;15.53;;;;;;;6.58;100.00;96472.00;4991665;28;101938;-64
2022/11/03 06:35:54;;;;;;;24.37;13.20;;;;;;;6.38;100.00;96484.69;5009136;28;104944;-64
2022/11/03 06:38:23;;;;;;;25.37;13.40;;;;;;;6.30;100.00;96484.97;5017146;28;104978;-64
2022/11/03 06:40:52;;;;;;;29.43;11.37;;;;;;;6.14;100.00;96488.19;5015386;28;104735;-64
2022/11/03 06:43:23;;;;;;;33.60;10.80;;;;;;;6.03;100.00;96489.75;5008533;28;102614;-64
2022/11/03 06:45:53;;;;;;;21.77;9.60;;;;;;;5.95;100.00;96495.28;5010473;28;101937;-64
2022/11/03 06:48:26;;;;;;;12.93;9.97;;;;;;;5.91;100.00;96493.31;5010012;28;102436;-64
2022/11/03 06:50:53;;;;;;;16.57;9.43;;;;;;;5.91;100.00;96496.78;5013638;28;102619;-64
2022/11/03 06:53:23;;;;;;;24.77;10.23;;;;;;;5.88;100.00;96485.81;5008690;28;101948;-64
2022/11/03 06:56:15;;;;;;;13.70;11.03;;;;;;;5.91;100.00;96493.31;5021337;28;102331;-64
2022/11/03 06:58:47;;;;;;;21.60;10.27;;;;;;;5.96;100.00;96483.72;5028719;27;103168;-64
2022/11/03 07:01:39;;;;;;;24.67;14.40;;;;;;;6.10;100.00;96479.91;5032253;27;101933;-64
2022/11/03 07:04:16;;;;;;;35.27;12.37;;;;;;;6.12;100.00;96488.41;5028513;27;102476;-64
2022/11/03 07:06:43;;;;;;;14.17;11.60;;;;;;;6.20;100.00;96480.19;5028775;28;102224;-64
2022/11/03 07:09:19;;;;;;;20.27;13.23;;;;;;;6.27;100.00;96474.84;5025688;28;103553;-64
2022/11/03 07:12:00;;;;;;;21.77;14.67;;;;;;;6.40;100.00;96464.94;5026961;28;105749;-64
2022/11/03 07:14:31;;;;;;;16.33;12.60;;;;;;;6.63;100.00;96458.94;5021844;27;101823;-64
2022/11/03 07:17:00;;;;;;;17.97;13.97;;;;;;;6.74;100.00;96463.47;5010326;28;102453;-64
2022/11/03 07:19:30;;;;;;;16.70;13.60;;;;;;;6.79;100.00;96463.59;5010186;28;102671;-64
2022/11/03 07:22:04;;;;;;;22.07;14.43;;;;;;;6.81;100.00;96456.25;5014557;28;101877;-64
2022/11/03 07:24:41;;;;;;;24.50;14.13;;;;;;;6.84;100.00;96463.72;5031648;27;102469;-64
2022/11/03 07:27:17;;;;;;;18.30;14.20;;;;;;;6.91;100.00;96461.78;5028028;28;102021;-64
2022/11/03 07:29:46;;;;;;;19.07;14.77;;;;;;;7.00;100.00;96461.25;5013491;28;102309;-64
2022/11/03 07:32:18;;;;;;;21.60;14.67;;;;;;;7.17;100.00;96445.53;5013331;28;103763;-64
2022/11/03 07:34:47;;;;;;;22.47;15.67;;;;;;;7.25;100.00;96447.84;5031915;27;101965;-64
2022/11/03 07:37:18;;;;;;;27.43;15.47;;;;;;;7.30;100.00;96440.06;5030504;27;102595;-64
2022/11/03 07:39:46;;;;;;;26.87;18.70;;;;;;;7.37;100.00;96438.09;5011013;28;106020;-64
2022/11/03 07:42:20;;;;;;;25.20;17.23;;;;;;;7.35;100.00;96430.38;5018553;28;102364;-64
2022/11/03 07:44:49;;;;;;;27.87;17.30;;;;;;;7.27;100.00;96429.91;5033331;28;105139;-64
2022/11/03 07:47:20;;;;;;;22.87;16.93;;;;;;;7.36;100.00;96420.63;5021953;27;101895;-63
2022/11/03 07:49:47;;;;;;;21.23;17.70;;;;;;;7.53;100.00;96417.03;5011719;28;103522;-63
2022/11/03 07:52:28;;;;;;;20.83;16.43;;;;;;;7.73;100.00;96409.56;5011120;28;102612;-63
2022/11/03 07:55:14;;;;;;;19.90;15.00;;;;;;;7.87;100.00;96410.13;5020933;28;101868;-63
2022/11/03 07:57:41;;;;;;;19.37;15.37;;;;;;;7.89;100.00;96402.72;5010114;28;102935;-64
2022/11/03 08:00:20;;;;;;;22.23;15.97;;;;;;;7.97;100.00;96399.75;5011225;28;105147;-63
2022/11/03 08:03:31;;;;;;;18.47;15.50;;;;;;;8.00;100.00;96404.56;5019302;28;102310;-64
2022/11/03 08:05:58;;;;;;;18.93;14.40;;;;;;;8.01;100.00;96395.59;5009821;28;105639;-63
2022/11/03 08:08:25;;;;;;;18.40;14.73;;;;;;;8.00;100.00;96384.19;5013835;28;102567;-64
2022/11/03 08:10:52;;;;;;;20.17;16.67;;;;;;;8.17;100.00;96385.06;5012317;28;104922;-63
2022/11/03 08:13:20;;;;;;;25.10;19.80;;;;;;;8.41;100.00;96380.50;5010685;28;102751;-65
2022/11/03 08:15:49;;;;;;;26.93;20.07;;;;;;;8.37;100.00;96376.72;5012576;28;103411;-62
2022/11/03 08:18:16;;;;;;;22.20;18.33;;;;;;;8.47;100.00;96368.97;5026128;28;105302;-63
2022/11/03 08:20:44;;;;;;;22.23;18.77;;;;;;;8.68;100.00;96363.00;5008749;28;103820;-62
2022/11/03 08:23:40;;;;;;;18.80;15.23;;;;;;;8.50;100.00;96357.91;5014846;28;102170;-63
2022/11/03 08:26:12;;;;;;;20.57;15.67;;;;;;;8.20;100.00;96354.69;5009659;28;104887;-63
2022/11/03 08:28:39;;;;;;;17.53;15.63;;;;;;;8.32;100.00;96358.91;5026054;28;105943;-63
2022/11/03 08:34:55;;;;;;;18.57;15.73;;;;;;;8.27;100.00;96373.88;5025840;28;103009;-63
2022/11/03 08:37:22;;;;;;;18.47;15.17;;;;;;;8.43;100.00;96359.88;5028381;28;101849;-63
2022/11/03 08:39:49;;;;;;;17.47;14.57;;;;;;;8.56;100.00;96352.44;5029035;28;105350;-63
2022/11/03 08:46:04;;;;;;;14.20;12.73;;;;;;;8.75;100.00;96339.78;5009594;28;101824;-63
2022/11/03 08:48:30;;;;;;;15.83;13.63;;;;;;;8.95;100.00;96340.13;5019329;28;105677;-62
2022/11/03 08:51:00;;;;;;;15.50;13.37;;;;;;;9.25;100.00;96327.31;5009322;28;105363;-63
2022/11/03 08:53:27;;;;;;;15.23;13.63;;;;;;;9.42;100.00;96320.13;5031050;27;102327;-64
2022/11/03 08:56:37;;;;;;;15.20;12.17;;;;;;;9.32;100.00;96326.09;5031462;28;103892;-63
2022/11/03 08:59:05;;;;;;;13.33;12.03;;;;;;;9.22;100.00;96320.63;5028170;28;102577;-63
2022/11/03 09:01:43;;;;;;;12.40;11.20;;;;;;;9.23;100.00;96318.78;5006754;28;105140;-63
2022/11/03 09:04:10;;;;;;;12.53;11.33;;;;;;;9.22;100.00;96317.19;5008230;28;105264;-64
2022/11/03 09:06:40;;;;;;;11.60;10.47;;;;;;;9.42;100.00;96315.63;5009137;28;102268;-64
2022/11/03 09:09:08;;;;;;;11.53;10.33;;;;;;;9.47;100.00;96315.69;5026412;28;105598;-64
2022/11/03 09:11:47;;;;;;;12.07;10.87;;;;;;;9.58;100.00;96300.69;5016168;28;105861;-64
2022/11/03 09:14:14;;;;;;;11.27;10.17;;;;;;;9.70;100.00;96298.75;5011457;28;101718;-64
2022/11/03 09:16:41;;;;;;;11.60;10.50;;;;;;;9.94;100.00;96298.25;5013954;28;104851;-64
2022/11/03 09:19:08;;;;;;;13.23;11.60;;;;;;;9.90;100.00;96298.97;5011184;28;101885;-63
2022/11/03 09:21:45;;;;;;;10.93;9.83;;;;;;;9.94;100.00;96286.81;5009212;28;103747;-64
2022/11/03 09:24:33;;;;;;;11.47;10.27;;;;;;;9.91;100.00;96281.97;5029292;28;105587;-64
2022/11/03 09:27:01;;;;;;;11.03;9.47;;;;;;;10.04;100.00;96276.34;5009380;28;102081;-64
2022/11/03 09:29:29;;;;;;;10.50;8.87;;;;;;;10.09;100.00;96277.19;5009821;28;105564;-64
2022/11/03 09:31:57;;;;;;;9.67;8.77;;;;;;;10.42;100.00;96273.53;5009032;28;105246;-65
2022/11/03 09:34:24;;;;;;;10.10;9.03;;;;;;;10.55;100.00;96267.78;5009753;28;101784;-65
2022/11/03 09:36:52;;;;;;;11.10;9.37;;;;;;;10.56;100.00;96262.22;5009450;28;105278;-64
2022/11/03 09:39:19;;;;;;;9.83;8.87;;;;;;;10.74;100.00;96264.50;5013280;28;105274;-64
2022/11/03 09:41:47;;;;;;;9.73;8.83;;;;;;;10.82;100.00;96268.56;5009419;28;104819;-64
2022/11/03 09:44:14;;;;;;;8.73;7.83;;;;;;;10.99;100.00;96258.56;5009429;28;104470;-64
2022/11/03 09:46:41;;;;;;;9.60;8.70;;;;;;;10.81;100.00;96258.97;5009142;28;101996;-64
2022/11/03 09:49:12;;;;;;;9.70;8.70;;;;;;;11.01;100.00;96253.81;5009200;28;103987;-63
2022/11/03 09:51:46;;;;;;;9.93;8.93;;;;;;;11.15;100.00;96258.44;5011573;28;105288;-63
2022/11/03 09:54:28;;;;;;;8.97;8.17;;;;;;;11.27;100.00;96244.91;5029629;28;102002;-64
2022/11/03 09:56:57;;;;;;;9.30;8.37;;;;;;;11.23;100.00;96235.84;5009048;28;104066;-68
2022/11/03 09:59:25;;;;;;;7.83;7.10;;;;;;;11.25;100.00;96233.72;5008000;28;104415;-68
2022/11/03 10:02:00;;;;;;;7.87;7.27;;;;;;;11.19;100.00;96230.25;5012349;28;102405;-69
2022/11/03 10:04:28;;;;;;;8.23;7.43;;;;;;;11.21;100.00;96221.97;5007943;28;105260;-67
2022/11/03 10:06:56;;;;;;;7.80;7.10;;;;;;;11.44;100.00;96219.72;5009059;28;101906;-65
2022/11/03 10:09:24;;;;;;;7.67;6.97;;;;;;;11.61;100.00;96208.91;5008678;28;105071;-64
2022/11/03 10:12:02;;;;;;;7.30;6.70;;;;;;;11.69;100.00;96195.06;5016748;28;105525;-66
2022/11/03 10:14:29;;;;;;;7.67;7.00;;;;;;;11.83;100.00;96190.88;5010578;28;102146;-66
2022/11/03 10:16:59;;;;;;;7.57;6.97;;;;;;;11.67;100.00;96191.88;5009899;28;102405;-66
2022/11/03 10:19:26;;;;;;;8.30;7.60;;;;;;;11.55;100.00;96188.63;5009626;28;103607;-66
2022/11/03 10:22:36;;;;;;;7.77;6.97;;;;;;;11.65;100.00;96175.34;5009937;28;101858;-66
2022/11/03 10:25:45;;;;;;;7.40;6.70;;;;;;;11.81;100.00;96180.47;5012794;28;104194;-66
2022/11/03 10:28:20;;;;;;;8.07;6.47;;;;;;;11.54;100.00;96171.81;5010297;28;101886;-66
2022/11/03 10:31:29;;;;;;;7.67;6.53;;;;;;;11.97;100.00;96173.28;5028520;28;103699;-66
2022/11/03 10:33:56;;;;;;;6.70;6.20;;;;;;;11.86;100.00;96166.34;5028567;28;104272;-67
2022/11/03 10:36:26;;;;;;;7.30;6.70;;;;;;;11.84;100.00;96160.50;5012331;28;101856;-67
2022/11/03 10:38:54;;;;;;;7.70;7.00;;;;;;;12.10;100.00;96159.47;5011140;28;103501;-67
2022/11/03 10:41:33;;;;;;;7.50;6.90;;;;;;;12.22;100.00;96160.00;5009399;28;102790;-66
2022/11/03 10:44:04;;;;;;;7.20;6.50;;;;;;;12.38;100.00;96164.28;5017735;28;101832;-67
2022/11/03 10:46:32;;;;;;;7.37;6.77;;;;;;;12.66;100.00;96145.88;5028658;28;104075;-66
2022/11/03 10:49:06;;;;;;;7.50;6.80;;;;;;;12.80;100.00;96148.78;5024712;28;103793;-71
2022/11/03 10:51:49;;;;;;;7.30;6.60;;;;;;;12.91;100.00;96145.03;5008357;28;105240;-73
2022/11/03 10:54:19;;;;;;;7.97;7.23;;;;;;;13.06;100.00;96143.16;5026796;28;105711;-74
2022/11/03 10:56:49;;;;;;;8.47;7.07;;;;;;;13.41;100.00;96147.56;5015547;28;102003;-73
2022/11/03 10:59:19;;;;;;;6.77;6.07;;;;;;;13.18;100.00;96132.16;5023424;28;104811;-70
2022/11/03 11:02:04;;;;;;;7.07;6.37;;;;;;;13.25;100.00;96130.78;5012642;28;103280;-70
2022/11/03 11:04:32;;;;;;;6.70;6.07;;;;;;;12.67;100.00;96127.97;5012124;28;103428;-70
2022/11/03 11:06:59;;;;;;;7.17;6.00;;;;;;;13.28;100.00;96132.91;5013205;28;105471;-69
2022/11/03 11:09:28;;;;;;;6.43;5.93;;;;;;;13.27;100.00;96133.19;5031242;28;105446;-70
2022/11/03 11:12:24;;;;;;;6.00;5.50;;;;;;;13.66;100.00;96118.03;5020058;28;102385;-73
2022/11/03 11:14:57;;;;;;;6.10;5.60;;;;;;;13.18;100.00;96119.59;5010846;28;105429;-71
2022/11/03 11:17:44;;;;;;;6.23;5.73;;;;;;;12.76;100.00;96113.03;5011984;28;102222;-67
2022/11/03 11:20:33;;;;;;;7.40;6.70;;;;;;;11.84;100.00;96107.22;5011747;28;105535;-67
2022/11/03 11:23:52;;;;;;;7.40;6.70;;;;;;;12.33;100.00;96116.28;5007096;28;105914;-66
2022/11/03 11:26:43;;;;;;;6.73;6.17;;;;;;;12.69;100.00;96105.31;5015790;28;102733;-67
2022/11/03 11:29:44;;;;;;;6.37;5.87;;;;;;;12.57;100.00;96095.97;5029898;28;103419;-67
2022/11/03 11:33:00;;;;;;;6.83;6.20;;;;;;;13.00;100.00;96090.03;5032605;27;103465;-67
2022/11/03 11:36:04;;;;;;;9.03;6.20;;;;;;;13.46;100.00;96081.56;5028120;27;101936;-67
2022/11/03 11:39:08;;;;;;;6.23;5.73;;;;;;;13.78;100.00;96083.75;5021998;27;103212;-67
2022/11/03 11:42:06;;;;;;;6.67;6.17;;;;;;;13.51;100.00;96078.84;4951385;28;101849;-67
2022/11/03 11:45:04;;;;;;;5.97;5.40;;;;;;;13.62;100.00;96077.72;4963248;28;102367;-67
2022/11/03 11:47:42;;;;;;;6.30;5.80;;;;;;;13.94;100.00;96074.56;4963007;28;102576;-67
2022/11/03 11:50:23;;;;;;;6.10;5.50;;;;;;;14.28;100.00;96072.72;4961225;28;102274;-67
2022/11/03 11:52:59;;;;;;;5.87;5.37;;;;;;;14.54;100.00;96066.06;4962176;28;102356;-67
2022/11/03 11:55:38;;;;;;;6.73;6.13;;;;;;;14.69;100.00;96055.19;4952564;28;105622;-66
2022/11/03 11:58:14;;;;;;;5.97;5.57;;;;;;;14.69;100.00;96057.88;4965892;28;102403;-66
2022/11/03 12:00:55;;;;;;;6.03;5.40;;;;;;;14.89;100.00;96057.66;4962433;28;102475;-66
2022/11/03 12:03:27;;;;;;;5.90;5.40;;;;;;;15.05;100.00;96053.72;4951203;28;101954;-67
2022/11/03 12:05:54;;;;;;;6.43;5.83;;;;;;;14.91;100.00;96047.47;4952387;28;102379;-67
2022/11/03 12:08:28;;;;;;;6.40;5.90;;;;;;;13.85;100.00;96054.88;4949089;28;102637;-67
2022/11/03 12:10:59;;;;;;;6.57;5.97;;;;;;;14.28;100.00;96056.69;4950760;28;101990;-67
2022/11/03 12:13:45;;;;;;;7.63;6.93;;;;;;;13.92;100.00;96055.34;4951196;28;102644;-66
2022/11/03 12:16:30;;;;;;;7.27;6.57;;;;;;;14.16;100.00;96050.84;5011491;28;102920;-65
2022/11/03 12:18:58;;;;;;;7.83;6.53;;;;;;;13.58;100.00;96051.84;5031597;27;101856;-65
2022/11/03 12:21:46;;;;;;;7.30;6.60;;;;;;;13.56;100.00;96056.66;5032451;27;102507;-65
2022/11/03 12:24:37;;;;;;;7.67;6.77;;;;;;;13.32;100.00;96047.72;5016082;28;102574;-65
2022/11/03 12:27:19;;;;;;;6.97;6.37;;;;;;;13.80;100.00;96046.88;5030959;28;104109;-65
2022/11/03 12:29:46;;;;;;;7.73;7.03;;;;;;;13.81;100.00;96035.91;5024766;28;105006;-65
2022/11/03 12:32:24;;;;;;;7.90;7.20;;;;;;;13.42;100.00;96034.31;5010738;28;102355;-65
2022/11/03 12:34:52;;;;;;;8.40;7.33;;;;;;;13.25;100.00;96031.22;5011768;28;105188;-64
2022/11/03 12:37:19;;;;;;;7.90;7.13;;;;;;;13.62;100.00;96023.50;5020017;28;102889;-65
2022/11/03 12:39:47;;;;;;;7.80;7.10;;;;;;;13.55;100.00;96023.81;5012310;28;101930;-65